createdAt,value
2019-01-25T00:00:33.320Z,103.33
2019-01-25T00:03:21.375Z,103.43
2019-01-25T00:06:09.463Z,100.30
2019-01-25T00:08:50.918Z,108.13
2019-01-25T00:11:32.280Z,102.17
2019-01-25T00:14:12.747Z,107.93
2019-01-25T00:16:53.267Z,99.27
2019-01-25T00:19:34.692Z,106.40
2019-01-25T00:22:15.800Z,101.00
2019-01-25T00:24:57.327Z,97.30
2019-01-25T00:27:38.522Z,105.17
2019-01-25T00:30:19.843Z,99.17
2019-01-25T00:33:01.139Z,105.93
2019-01-25T00:35:42.375Z,104.47
2019-01-25T00:38:23.711Z,105.47
2019-01-25T00:41:04.824Z,100.43
2019-01-25T00:43:46.209Z,108.20
2019-01-25T00:46:27.436Z,109.50
2019-01-25T00:49:08.831Z,107.70
2019-01-25T00:51:49.842Z,104.60
2019-01-25T00:54:31.191Z,107.77
2019-01-25T00:57:12.487Z,101.47
2019-01-25T00:59:53.890Z,104.03
2019-01-25T01:02:35.021Z,106.80
2019-01-25T01:05:16.107Z,104.33
2019-01-25T01:07:57.583Z,109.37
2019-01-25T01:10:38.903Z,115.10
2019-01-25T01:13:19.435Z,110.53
2019-01-25T01:16:00.815Z,109.97
2019-01-25T01:18:42.047Z,108.27
2019-01-25T01:21:22.886Z,113.63
2019-01-25T01:24:03.991Z,107.30
2019-01-25T01:26:44.449Z,100.50
2019-01-25T01:29:25.623Z,108.30
2019-01-25T01:32:06.706Z,110.10
2019-01-25T01:34:48.042Z,109.23
2019-01-25T01:37:29.195Z,103.43
2019-01-25T01:40:10.083Z,108.57
2019-01-25T01:42:50.597Z,112.73
2019-01-25T01:45:29.577Z,110.33
2019-01-25T01:48:17.610Z,106.87
2019-01-25T01:51:05.706Z,111.33
2019-01-25T01:53:53.759Z,114.70
2019-01-25T01:56:41.817Z,112.73
2019-01-25T01:59:29.845Z,121.47
2019-01-25T02:02:37.799Z,108.63
2019-01-25T02:05:25.907Z,118.63
2019-01-25T02:08:13.958Z,114.70
2019-01-25T02:10:55.063Z,106.67
2019-01-25T02:13:36.398Z,110.63
2019-01-25T02:16:17.455Z,114.17
2019-01-25T02:18:58.784Z,114.87
2019-01-25T02:21:39.820Z,117.93
2019-01-25T02:24:20.663Z,113.70
2019-01-25T02:27:01.523Z,112.30
2019-01-25T02:29:42.065Z,115.67
2019-01-25T02:32:21.060Z,120.23
2019-01-25T02:35:09.167Z,116.67
2019-01-25T02:37:57.191Z,127.03
2019-01-25T02:40:45.244Z,120.13
2019-01-25T02:43:53.197Z,150.53
2019-01-25T02:46:41.342Z,146.50
2019-01-25T02:49:29.366Z,156.00
2019-01-25T02:52:17.488Z,154.50
2019-01-25T02:55:06.328Z,171.03
2019-01-25T02:57:54.419Z,166.23
2019-01-25T03:00:42.481Z,157.13
2019-01-25T03:03:30.500Z,164.03
2019-01-25T03:06:18.552Z,158.57
2019-01-25T03:12:15.222Z,143.33
2019-01-25T03:18:11.910Z,156.23
2019-01-25T03:20:59.944Z,131.73
2019-01-25T03:23:47.966Z,141.13
2019-01-25T03:26:36.025Z,151.07
2019-01-25T03:29:24.052Z,168.03
2019-01-25T03:32:12.097Z,151.43
2019-01-25T03:35:00.396Z,153.03
2019-01-25T03:38:09.816Z,155.07
2019-01-25T03:40:57.842Z,137.90
2019-01-25T03:43:46.071Z,149.93
2019-01-25T03:46:34.096Z,154.20
2019-01-25T03:49:22.140Z,172.87
2019-01-25T03:52:10.194Z,183.00
2019-01-25T03:54:58.213Z,179.13
2019-01-25T03:57:53.178Z,192.90
2019-01-25T04:00:41.202Z,188.80
2019-01-25T04:03:29.251Z,194.77
2019-01-25T04:06:17.271Z,195.67
2019-01-25T04:09:25.181Z,193.53
2019-01-25T04:12:13.224Z,184.50
2019-01-25T04:18:36.637Z,198.53
2019-01-25T04:21:24.725Z,204.20
2019-01-25T04:24:12.773Z,195.80
2019-01-25T04:27:00.864Z,191.20
2019-01-25T04:29:48.911Z,193.70
2019-01-25T04:32:36.955Z,212.77
2019-01-25T04:35:44.947Z,193.80
2019-01-25T04:38:33.001Z,179.67
2019-01-25T04:41:21.015Z,193.67
2019-01-25T04:44:09.063Z,185.37
2019-01-25T04:46:57.105Z,203.13
2019-01-25T04:49:45.160Z,188.93
2019-01-25T04:52:33.202Z,200.87
2019-01-25T04:58:36.675Z,193.13
2019-01-25T05:01:44.667Z,201.30
2019-01-25T05:07:41.359Z,189.63
2019-01-25T05:10:21.877Z,193.77
2019-01-25T05:13:03.135Z,208.50
2019-01-25T05:15:44.466Z,209.53
2019-01-25T05:18:25.681Z,201.00
2019-01-25T05:21:06.933Z,206.10
2019-01-25T05:23:48.162Z,192.53
2019-01-25T05:26:29.473Z,208.77
2019-01-25T05:29:10.817Z,195.77
2019-01-25T05:31:52.053Z,193.17
2019-01-25T05:34:33.095Z,190.77
2019-01-25T05:37:14.089Z,191.97
2019-01-25T05:39:54.791Z,217.30
2019-01-25T05:42:36.043Z,205.20
2019-01-25T05:45:16.978Z,195.80
2019-01-25T05:47:58.414Z,205.27
2019-01-25T05:50:37.922Z,204.43
2019-01-25T05:53:25.998Z,201.00
2019-01-25T05:56:14.022Z,206.67
2019-01-25T05:59:02.075Z,196.20
2019-01-25T06:01:50.102Z,197.57
2019-01-25T06:04:38.322Z,201.67
2019-01-25T06:07:26.685Z,192.53
2019-01-25T06:10:07.401Z,197.53
2019-01-25T06:12:48.287Z,199.40
2019-01-25T06:15:28.784Z,218.17
2019-01-25T06:18:09.433Z,219.07
2019-01-25T06:20:50.777Z,207.63
2019-01-25T06:23:31.836Z,186.40
2019-01-25T06:26:13.130Z,197.30
2019-01-25T06:28:54.186Z,208.30
2019-01-25T06:31:35.147Z,213.57
2019-01-25T06:34:16.495Z,193.60
2019-01-25T06:36:56.984Z,181.40
2019-01-25T06:39:37.917Z,186.93
2019-01-25T06:42:18.937Z,169.63
2019-01-25T06:44:59.864Z,211.00
2019-01-25T06:47:41.266Z,179.07
2019-01-25T06:50:24.649Z,216.75
2019-01-25T06:53:05.216Z,197.60
2019-01-25T06:55:46.370Z,214.32
2019-01-25T06:58:27.807Z,210.70
2019-01-25T07:01:08.991Z,196.77
2019-01-25T07:03:50.108Z,194.07
2019-01-25T07:06:31.431Z,175.50
2019-01-25T07:09:11.967Z,203.30
2019-01-25T07:11:52.485Z,186.23
2019-01-25T07:14:33.607Z,186.13
2019-01-25T07:17:14.131Z,181.13
2019-01-25T07:19:55.601Z,179.40
2019-01-25T07:22:36.261Z,191.23
2019-01-25T07:25:17.325Z,202.43
2019-01-25T07:27:58.212Z,189.43
2019-01-25T07:30:39.397Z,200.40
2019-01-25T07:33:20.832Z,202.45
2019-01-25T07:36:02.036Z,200.15
2019-01-25T07:38:43.415Z,180.40
2019-01-25T07:41:22.521Z,159.93
2019-01-25T07:44:10.641Z,156.87
2019-01-25T07:46:58.845Z,197.57
2019-01-25T07:49:53.584Z,163.70
2019-01-25T07:52:41.710Z,179.97
2019-01-25T07:55:29.813Z,188.33
2019-01-25T07:58:37.814Z,165.87
2019-01-25T08:01:25.882Z,168.40
2019-01-25T08:04:14.097Z,195.43
2019-01-25T08:07:02.195Z,198.43
2019-01-25T08:10:03.507Z,202.87
2019-01-25T08:12:44.970Z,187.80
2019-01-25T08:15:26.254Z,176.63
2019-01-25T08:18:07.432Z,178.23
2019-01-25T08:20:48.645Z,170.00
2019-01-25T08:23:29.987Z,198.97
2019-01-25T08:26:10.922Z,175.50
2019-01-25T08:28:52.338Z,167.77
2019-01-25T08:31:32.898Z,189.13
2019-01-25T08:34:13.882Z,185.27
2019-01-25T08:36:55.073Z,191.57
2019-01-25T08:39:36.265Z,174.27
2019-01-25T08:42:17.027Z,184.20
2019-01-25T08:44:59.733Z,160.83
2019-01-25T08:47:40.638Z,171.35
2019-01-25T08:50:21.582Z,179.30
2019-01-25T08:53:02.564Z,163.40
2019-01-25T08:55:43.818Z,160.07
2019-01-25T08:58:24.995Z,142.00
2019-01-25T09:01:05.658Z,154.20
2019-01-25T09:03:47.001Z,161.50
2019-01-25T09:06:28.284Z,158.60
2019-01-25T09:09:09.710Z,167.80
2019-01-25T09:11:51.008Z,152.03
2019-01-25T09:14:32.173Z,145.10
2019-01-25T09:17:13.481Z,155.33
2019-01-25T09:19:54.873Z,154.97
2019-01-25T09:22:35.976Z,163.15
2019-01-25T09:25:15.142Z,157.93
2019-01-25T09:28:03.254Z,147.77
2019-01-25T09:30:51.467Z,156.10
2019-01-25T09:33:39.524Z,154.70
2019-01-25T09:36:27.586Z,144.77
2019-01-25T09:39:15.609Z,149.03
2019-01-25T09:42:03.744Z,153.47
2019-01-25T09:45:11.941Z,152.83
2019-01-25T09:47:59.993Z,153.38
2019-01-25T09:51:08.093Z,153.15
2019-01-25T09:53:56.126Z,147.07
2019-01-25T09:56:44.222Z,132.80
2019-01-25T09:59:32.258Z,140.30
2019-01-25T10:02:20.382Z,147.03
2019-01-25T10:05:08.485Z,127.50
2019-01-25T10:07:56.537Z,140.63
2019-01-25T10:10:37.257Z,136.87
2019-01-25T10:13:18.522Z,129.17
2019-01-25T10:15:58.973Z,129.80
2019-01-25T10:18:40.228Z,134.53
2019-01-25T10:21:21.333Z,128.83
2019-01-25T10:24:02.736Z,143.40
2019-01-25T10:26:43.886Z,134.47
2019-01-25T10:29:25.251Z,130.60
2019-01-25T10:32:06.473Z,105.30
2019-01-25T10:34:47.858Z,108.63
2019-01-25T10:37:26.937Z,79.90
2019-01-25T10:40:34.296Z,74.80
2019-01-25T10:43:22.357Z,86.20
2019-01-25T10:46:10.401Z,78.70
2019-01-25T10:48:58.446Z,73.60
2019-01-25T10:51:46.485Z,72.72
2019-01-25T10:54:34.549Z,73.03
2019-01-25T10:57:22.590Z,58.13
2019-01-25T11:03:25.997Z,44.47
2019-01-25T11:06:14.034Z,40.53
2019-01-25T11:09:02.105Z,41.43
2019-01-25T11:11:43.297Z,41.83
2019-01-25T11:14:23.982Z,40.80
2019-01-25T11:17:05.306Z,37.47
2019-01-25T11:19:46.386Z,36.63
2019-01-25T11:22:27.677Z,38.57
2019-01-25T11:25:09.078Z,37.10
2019-01-25T11:27:50.635Z,27.73
2019-01-25T11:30:31.649Z,34.17
2019-01-25T11:33:12.677Z,36.50
2019-01-25T11:35:53.707Z,31.87
2019-01-25T11:38:35.041Z,37.20
2019-01-25T11:41:16.412Z,38.53
2019-01-25T11:43:57.790Z,35.57
2019-01-25T11:46:38.266Z,38.13
2019-01-25T11:49:18.924Z,40.00
2019-01-25T11:52:00.191Z,35.90
2019-01-25T11:54:41.245Z,47.10
2019-01-25T11:57:22.575Z,41.70
2019-01-25T12:00:03.926Z,38.73
2019-01-25T12:02:45.222Z,47.40
2019-01-25T12:05:26.357Z,41.77
2019-01-25T12:08:07.588Z,40.67
2019-01-25T12:10:48.946Z,44.70
2019-01-25T12:13:30.325Z,42.58
2019-01-25T12:16:09.472Z,38.90
2019-01-25T12:18:57.494Z,37.60
2019-01-25T12:21:45.549Z,40.70
2019-01-25T12:24:33.598Z,35.43
2019-01-25T12:27:21.654Z,34.37
2019-01-25T12:33:25.014Z,34.33
2019-01-25T12:36:13.059Z,33.77
2019-01-25T12:39:01.118Z,34.37
2019-01-25T12:41:49.173Z,29.97
2019-01-25T12:44:57.080Z,31.07
2019-01-25T12:47:45.130Z,29.98
2019-01-25T12:50:52.562Z,34.00
2019-01-25T12:53:40.681Z,32.17
2019-01-25T12:56:28.725Z,27.73
2019-01-25T12:59:36.786Z,29.83
2019-01-25T13:02:24.942Z,30.13
2019-01-25T13:08:21.678Z,29.18
2019-01-25T13:11:02.785Z,25.30
2019-01-25T13:13:44.249Z,25.03
2019-01-25T13:16:25.530Z,25.73
2019-01-25T13:19:06.793Z,27.80
2019-01-25T13:21:47.310Z,24.23
2019-01-25T13:24:30.575Z,25.67
2019-01-25T13:27:11.926Z,22.17
2019-01-25T13:29:53.021Z,22.00
2019-01-25T13:32:34.424Z,26.73
2019-01-25T13:35:15.906Z,24.27
2019-01-25T13:37:57.183Z,22.83
2019-01-25T13:40:46.770Z,26.60
2019-01-25T13:43:39.169Z,22.77
2019-01-25T13:46:45.026Z,24.87
2019-01-25T13:49:33.134Z,24.77
2019-01-25T13:52:21.165Z,25.07
2019-01-25T13:58:08.246Z,23.03
2019-01-25T14:00:56.362Z,30.50
2019-01-25T14:03:44.463Z,27.93
2019-01-25T14:06:32.538Z,26.73
2019-01-25T14:09:20.590Z,28.03
2019-01-25T14:12:01.162Z,25.57
2019-01-25T14:14:43.034Z,25.90
2019-01-25T14:17:24.458Z,25.33
2019-01-25T14:20:05.612Z,26.47
2019-01-25T14:22:46.819Z,21.93
2019-01-25T14:25:28.009Z,23.60
2019-01-25T14:28:09.275Z,24.63
2019-01-25T14:30:50.528Z,24.13
2019-01-25T14:33:31.054Z,24.93
2019-01-25T14:36:12.521Z,27.80
2019-01-25T14:38:53.905Z,26.13
2019-01-25T14:41:35.365Z,27.17
2019-01-25T14:44:15.838Z,22.07
2019-01-25T14:46:57.067Z,23.37
2019-01-25T14:49:38.384Z,23.00
2019-01-25T14:52:19.737Z,25.30
2019-01-25T14:55:01.192Z,26.07
2019-01-25T14:57:42.340Z,25.13
2019-01-25T15:00:23.598Z,23.33
2019-01-25T15:03:04.848Z,26.63
2019-01-25T15:05:46.117Z,23.17
2019-01-25T15:08:27.434Z,21.73
2019-01-25T15:11:08.603Z,26.37
2019-01-25T15:13:49.871Z,26.10
2019-01-25T15:16:30.702Z,22.30
2019-01-25T15:19:12.022Z,23.87
2019-01-25T15:21:53.267Z,25.27
2019-01-25T15:24:34.474Z,24.43
2019-01-25T15:27:15.801Z,25.13
2019-01-25T15:29:56.789Z,26.53
2019-01-25T15:32:38.133Z,24.97
2019-01-25T15:35:18.198Z,26.07
2019-01-25T15:38:06.404Z,30.03
2019-01-25T15:40:54.454Z,24.63
2019-01-25T15:43:44.393Z,30.33
2019-01-25T15:46:32.438Z,25.97
2019-01-25T15:49:20.514Z,26.77
2019-01-25T15:52:08.703Z,30.93
2019-01-25T15:54:56.853Z,32.90
2019-01-25T15:57:44.926Z,33.80
2019-01-25T16:00:32.986Z,34.30
2019-01-25T16:03:21.057Z,33.73
2019-01-25T16:06:02.297Z,35.53
2019-01-25T16:08:43.715Z,38.70
2019-01-25T16:11:24.478Z,36.83
2019-01-25T16:14:05.566Z,35.67
2019-01-25T16:16:46.143Z,37.00
2019-01-25T16:19:27.443Z,37.40
2019-01-25T16:22:08.706Z,39.70
2019-01-25T16:24:49.257Z,38.17
2019-01-25T16:27:30.415Z,39.13
2019-01-25T16:30:13.798Z,40.57
2019-01-25T16:32:54.508Z,41.10
2019-01-25T16:35:35.715Z,33.83
2019-01-25T16:38:16.876Z,47.03
2019-01-25T16:40:58.075Z,49.33
2019-01-25T16:43:38.630Z,45.85
2019-01-25T16:46:19.366Z,49.60
2019-01-25T16:49:00.493Z,46.23
2019-01-25T16:51:41.785Z,45.77
2019-01-25T16:54:22.816Z,39.87
2019-01-25T16:57:03.897Z,39.80
2019-01-25T16:59:45.104Z,45.50
2019-01-25T17:02:26.312Z,44.90
2019-01-25T17:05:07.681Z,46.40
2019-01-25T17:07:49.021Z,46.57
2019-01-25T17:10:30.314Z,44.30
2019-01-25T17:13:11.515Z,40.87
2019-01-25T17:15:50.594Z,38.47
2019-01-25T17:18:38.685Z,40.90
2019-01-25T17:21:26.792Z,46.87
2019-01-25T17:24:14.907Z,42.33
2019-01-25T17:27:03.506Z,41.13
2019-01-25T17:29:51.553Z,43.13
2019-01-25T17:32:39.629Z,46.33
2019-01-25T17:35:27.827Z,42.73
2019-01-25T17:38:15.992Z,36.33
2019-01-25T17:41:04.145Z,42.57
2019-01-25T17:43:52.214Z,40.37
2019-01-25T17:46:40.234Z,44.30
2019-01-25T17:49:28.293Z,40.33
2019-01-25T17:52:16.406Z,44.97
2019-01-25T17:58:19.780Z,41.80
2019-01-25T18:01:07.896Z,37.63
2019-01-25T18:03:56.059Z,41.43
2019-01-25T18:06:44.163Z,40.60
2019-01-25T18:09:32.124Z,48.30
2019-01-25T18:15:25.737Z,41.10
2019-01-25T18:18:06.870Z,41.20
2019-01-25T18:20:48.062Z,35.20
2019-01-25T18:23:29.420Z,40.17
2019-01-25T18:25:58.277Z,39.93
2019-01-25T18:31:44.957Z,43.93
2019-01-25T18:34:33.102Z,39.20
2019-01-25T18:37:41.078Z,39.27
2019-01-25T18:43:43.941Z,41.90
2019-01-25T18:46:32.066Z,35.50
2019-01-25T18:49:20.108Z,42.43
2019-01-25T18:52:08.339Z,36.03
2019-01-25T18:54:56.957Z,42.53
2019-01-25T18:58:06.122Z,41.97
2019-01-25T19:01:14.110Z,37.30
2019-01-25T19:04:02.234Z,39.90
2019-01-25T19:06:50.385Z,37.67
2019-01-25T19:09:38.555Z,43.40
2019-01-25T19:12:20.433Z,39.63
2019-01-25T19:15:04.437Z,36.97
2019-01-25T19:17:45.292Z,34.43
2019-01-25T19:20:26.764Z,41.53
2019-01-25T19:23:08.228Z,38.73
2019-01-25T19:25:48.877Z,35.07
2019-01-25T19:28:30.134Z,35.63
2019-01-25T19:31:11.310Z,37.47
2019-01-25T19:33:52.859Z,38.10
2019-01-25T19:36:33.461Z,38.17
2019-01-25T19:39:14.765Z,36.53
2019-01-25T19:41:43.580Z,36.77
2019-01-25T19:44:51.502Z,38.57
2019-01-25T19:47:39.703Z,39.07
2019-01-25T19:50:27.909Z,42.60
2019-01-25T19:53:16.037Z,41.93
2019-01-25T19:56:23.963Z,34.33
2019-01-25T19:59:32.019Z,41.27
2019-01-25T20:02:20.217Z,38.87
2019-01-25T20:08:23.813Z,35.23
2019-01-25T20:11:03.002Z,39.67
2019-01-25T20:13:51.074Z,35.50
2019-01-25T20:16:58.973Z,38.77
2019-01-25T20:19:47.236Z,38.80
2019-01-25T20:22:35.330Z,38.70
2019-01-25T20:25:23.398Z,32.27
2019-01-25T20:28:12.019Z,34.53
2019-01-25T20:31:21.450Z,35.33
2019-01-25T20:34:09.622Z,34.00
2019-01-25T20:37:17.531Z,32.40
2019-01-25T20:40:24.954Z,37.37
2019-01-25T20:46:27.081Z,34.40
2019-01-25T20:49:15.127Z,35.70
2019-01-25T20:58:03.521Z,32.83
2019-01-25T21:00:51.768Z,29.47
2019-01-25T21:04:01.430Z,28.73
2019-01-25T21:06:49.586Z,31.17
2019-01-25T21:09:37.806Z,31.27
2019-01-25T21:12:19.134Z,32.53
2019-01-25T21:15:00.103Z,29.10
2019-01-25T21:17:41.309Z,30.37
2019-01-25T21:20:22.378Z,34.37
2019-01-25T21:23:03.726Z,32.83
2019-01-25T21:25:45.103Z,31.37
2019-01-25T21:28:26.459Z,31.17
2019-01-25T21:31:07.882Z,31.73
2019-01-25T21:33:49.125Z,32.80
2019-01-25T21:36:30.378Z,26.97
2019-01-25T21:39:11.515Z,30.63
2019-01-25T21:41:52.644Z,26.43
2019-01-25T21:44:33.782Z,30.70
2019-01-25T21:47:15.063Z,28.80
2019-01-25T21:49:56.487Z,29.43
2019-01-25T21:52:37.194Z,29.63
2019-01-25T21:55:18.510Z,29.93
2019-01-25T21:58:05.503Z,26.20
2019-01-25T22:03:57.844Z,24.73
2019-01-25T22:07:06.009Z,25.23
2019-01-25T22:09:54.106Z,31.03
2019-01-25T22:12:35.357Z,30.63
2019-01-25T22:15:16.614Z,25.77
2019-01-25T22:17:58.794Z,28.73
2019-01-25T22:20:39.761Z,30.00
2019-01-25T22:23:21.013Z,29.90
2019-01-25T22:26:02.272Z,27.80
2019-01-25T22:28:43.590Z,30.20
2019-01-25T22:31:24.825Z,31.73
2019-01-25T22:34:05.476Z,28.80
2019-01-25T22:36:46.790Z,33.90
2019-01-25T22:39:28.014Z,29.47
2019-01-25T22:42:09.209Z,31.07
2019-01-25T22:44:50.451Z,36.97
2019-01-25T22:47:31.683Z,33.10
2019-01-25T22:50:12.724Z,32.70
2019-01-25T22:52:54.033Z,35.00
2019-01-25T22:55:35.124Z,36.07
2019-01-25T22:58:16.235Z,30.00
2019-01-25T23:00:56.741Z,31.57
2019-01-25T23:03:38.027Z,33.40
2019-01-25T23:06:21.381Z,33.07
2019-01-25T23:09:28.764Z,30.03
2019-01-25T23:12:10.123Z,39.17
2019-01-25T23:14:50.593Z,32.93
2019-01-25T23:17:31.793Z,37.10
2019-01-25T23:22:54.497Z,34.97
2019-01-25T23:25:35.850Z,38.30
2019-01-25T23:28:17.074Z,37.93
2019-01-25T23:30:58.437Z,40.07
2019-01-25T23:33:39.753Z,47.20
2019-01-25T23:36:20.954Z,41.03
2019-01-25T23:39:02.228Z,44.80
2019-01-25T23:41:43.413Z,46.57
2019-01-25T23:44:24.771Z,47.20
2019-01-25T23:47:06.105Z,49.87
2019-01-25T23:49:47.230Z,48.53
2019-01-25T23:52:28.438Z,50.57
2019-01-25T23:55:09.813Z,61.53
2019-01-25T23:57:51.062Z,54.83
